Time;durP1;ratioP1;P1;durP2;ratioP2;P2;SDS_P1;SDS_P2;PMS_P1;PMS_P2;Temp;Humidity;BMP_temperature;BMP_pressure;BME280_temperature;BME280_humidity;BME280_pressure;Samples;Min_cycle;Max_cycle;Signal;HPM_P1;HPM_P2
2022/07/15 00:01:31;;;;;;;7.50;1.80;;;;;;;13.28;100.00;102090.00;10452114;28;20052;-64
2022/07/15 00:06:31;;;;;;;5.95;1.20;;;;;;;13.28;100.00;102090.00;10451617;28;20085;-64
2022/07/15 00:11:31;;;;;;;15.20;1.75;;;;;;;13.29;100.00;102085.34;10491755;28;20048;-63
2022/07/15 00:16:32;;;;;;;7.05;1.20;;;;;;;13.29;100.00;102085.34;10486015;28;20381;-63
2022/07/15 00:21:33;;;;;;;5.75;1.65;;;;;;;13.29;100.00;102082.56;10447311;28;20048;-64
2022/07/15 00:26:33;;;;;;;12.23;1.88;;;;;;;13.35;100.00;102078.00;10449674;28;20104;-64
2022/07/15 00:31:34;;;;;;;9.68;1.70;;;;;;;13.38;100.00;102083.88;10450344;28;20036;-64
2022/07/15 00:36:34;;;;;;;8.35;1.42;;;;;;;13.35;100.00;102073.31;10449695;28;20443;-64
2022/07/15 00:41:38;;;;;;;6.30;1.27;;;;;;;13.32;100.00;102073.81;10451122;28;20068;-64
2022/07/15 00:46:39;;;;;;;5.57;1.25;;;;;;;13.31;100.00;102069.34;10445638;28;20041;-64
2022/07/15 00:51:44;;;;;;;13.45;2.78;;;;;;;13.28;100.00;102067.88;10449514;28;20496;-64
2022/07/15 00:56:53;;;;;;;8.43;2.38;;;;;;;13.25;100.00;102073.03;10449551;28;20037;-64
2022/07/15 01:01:53;;;;;;;7.47;1.90;;;;;;;13.04;100.00;102049.63;10450078;28;20033;-64
2022/07/15 01:06:54;;;;;;;8.55;2.15;;;;;;;13.15;100.00;102061.75;10448474;28;20044;-63
2022/07/15 01:11:54;;;;;;;7.05;1.25;;;;;;;13.21;100.00;102069.09;10450311;28;20040;-63
2022/07/15 01:16:55;;;;;;;5.35;1.58;;;;;;;13.24;100.00;102071.38;10467648;28;20036;-64
2022/07/15 01:21:55;;;;;;;5.53;1.33;;;;;;;13.24;100.00;102072.22;10488336;28;20060;-64
2022/07/15 01:26:56;;;;;;;14.02;2.38;;;;;;;13.22;100.00;102060.56;10489135;28;20033;-64
2022/07/15 01:31:56;;;;;;;8.70;1.52;;;;;;;13.22;100.00;102068.00;10489327;28;20041;-64
2022/07/15 01:36:57;;;;;;;9.32;1.63;;;;;;;13.18;100.00;102067.66;10490019;28;20469;-64
2022/07/15 01:41:57;;;;;;;9.77;1.38;;;;;;;13.05;100.00;102085.34;10488645;28;20054;-62
2022/07/15 01:46:58;;;;;;;7.75;1.65;;;;;;;12.95;100.00;102085.09;10486868;28;20048;-64
2022/07/15 01:51:59;;;;;;;12.10;1.70;;;;;;;12.96;100.00;102085.94;10488624;28;20041;-64
2022/07/15 01:57:00;;;;;;;8.48;1.70;;;;;;;12.95;100.00;102093.41;10470251;28;20037;-64
2022/07/15 02:02:00;;;;;;;11.10;1.67;;;;;;;12.88;100.00;102089.94;10489334;28;20033;-63
2022/07/15 02:07:01;;;;;;;7.40;1.52;;;;;;;12.86;100.00;102092.09;10488294;28;20032;-64
2022/07/15 02:12:01;;;;;;;12.25;1.70;;;;;;;12.86;100.00;102097.63;10488170;28;20067;-64
2022/07/15 02:17:02;;;;;;;8.43;1.50;;;;;;;12.80;100.00;102093.03;10487236;28;20053;-64
2022/07/15 02:22:03;;;;;;;6.18;1.23;;;;;;;12.76;100.00;102083.56;10447622;28;20064;-65
2022/07/15 02:27:03;;;;;;;8.63;1.90;;;;;;;12.79;100.00;102088.59;10443816;28;20036;-64
2022/07/15 02:32:04;;;;;;;5.93;1.30;;;;;;;12.76;100.00;102089.09;10428353;28;20374;-65
2022/07/15 02:37:05;;;;;;;5.43;1.42;;;;;;;12.76;100.00;102091.84;10446962;28;20064;-64
2022/07/15 02:42:06;;;;;;;8.02;1.25;;;;;;;12.70;100.00;102083.41;10445335;28;20041;-61
2022/07/15 02:47:06;;;;;;;9.13;1.75;;;;;;;12.63;100.00;102085.47;10447176;28;20054;-64
2022/07/15 02:52:07;;;;;;;5.88;1.55;;;;;;;12.53;100.00;102085.22;10449683;28;20083;-63
2022/07/15 02:57:07;;;;;;;7.80;1.38;;;;;;;12.36;100.00;102081.44;10443809;28;20075;-64
2022/07/15 03:02:08;;;;;;;9.68;1.63;;;;;;;12.20;100.00;102086.56;10444793;28;20412;-63
2022/07/15 03:07:08;;;;;;;7.55;1.90;;;;;;;12.06;100.00;102087.84;10447881;28;20040;-64
2022/07/15 03:12:08;;;;;;;10.15;1.70;;;;;;;11.92;100.00;102092.69;10451160;28;20074;-63
2022/07/15 03:17:09;;;;;;;5.65;1.77;;;;;;;11.91;100.00;102097.38;10453531;28;20071;-64
2022/07/15 03:22:09;;;;;;;7.63;1.65;;;;;;;12.03;100.00;102093.81;10486334;28;20032;-63
2022/07/15 03:27:10;;;;;;;4.70;1.70;;;;;;;12.11;100.00;102101.78;10494132;28;20384;-63
2022/07/15 03:32:11;;;;;;;6.30;1.73;;;;;;;11.95;100.00;102086.72;10494534;28;20037;-62
2022/07/15 03:37:11;;;;;;;8.82;2.15;;;;;;;11.96;100.00;102104.13;10478453;28;20041;-62
2022/07/15 03:42:12;;;;;;;6.45;1.65;;;;;;;11.88;100.00;102102.50;10494880;28;20051;-63
2022/07/15 03:47:12;;;;;;;10.45;1.45;;;;;;;11.78;100.00;102103.06;10490752;28;20373;-63
2022/07/15 03:52:12;;;;;;;7.75;2.63;;;;;;;11.78;100.00;102103.06;10490260;28;20037;-63
2022/07/15 03:57:13;;;;;;;7.13;2.13;;;;;;;11.80;100.00;102113.84;10452270;28;20044;-63
2022/07/15 04:02:13;;;;;;;10.25;1.70;;;;;;;11.85;100.00;102119.53;10434241;28;20052;-64
2022/07/15 04:07:14;;;;;;;10.13;1.50;;;;;;;11.97;100.00;102116.84;10493855;28;20040;-64
2022/07/15 04:12:14;;;;;;;6.00;1.70;;;;;;;12.13;100.00;102129.97;10492540;28;20032;-64
2022/07/15 04:17:15;;;;;;;6.03;1.23;;;;;;;12.24;100.00;102129.19;10492146;28;20044;-64
2022/07/15 04:22:16;;;;;;;8.60;1.33;;;;;;;12.32;100.00;102128.88;10492163;28;20063;-61
2022/07/15 04:27:17;;;;;;;3.00;1.10;;;;;;;12.48;100.00;102137.53;10463160;28;20049;-66
2022/07/15 04:32:17;;;;;;;6.32;1.10;;;;;;;12.53;100.00;102143.22;10432440;28;20032;-64
2022/07/15 04:37:17;;;;;;;4.47;1.13;;;;;;;12.62;100.00;102154.75;10451999;28;20517;-64
2022/07/15 04:42:18;;;;;;;10.27;1.50;;;;;;;12.70;100.00;102173.75;10450040;28;20039;-65
2022/07/15 04:47:18;;;;;;;11.85;1.75;;;;;;;12.74;100.00;102182.44;10486612;28;20036;-66
2022/07/15 04:52:19;;;;;;;4.85;1.27;;;;;;;12.52;100.00;102138.75;10490259;28;20415;-67
2022/07/15 04:57:19;;;;;;;8.55;1.40;;;;;;;12.79;100.00;102175.09;10489131;28;20040;-66
2022/07/15 05:02:20;;;;;;;5.72;1.20;;;;;;;12.82;100.00;102163.56;10470848;28;20036;-63
2022/07/15 05:07:20;;;;;;;7.03;1.75;;;;;;;12.86;100.00;102169.47;10447451;28;20040;-66
2022/07/15 05:12:21;;;;;;;3.75;1.13;;;;;;;12.93;100.00;102171.03;10447397;28;20044;-66
2022/07/15 05:17:22;;;;;;;8.13;1.48;;;;;;;12.94;100.00;102174.66;10448430;28;20045;-66
2022/07/15 05:22:22;;;;;;;10.02;1.10;;;;;;;12.92;100.00;102165.75;10453797;28;20044;-66
2022/07/15 05:27:23;;;;;;;3.15;1.10;;;;;;;12.94;100.00;102160.84;10480620;28;20501;-67
2022/07/15 05:32:24;;;;;;;6.75;1.77;;;;;;;13.16;100.00;102168.53;10448094;28;20497;-66
2022/07/15 05:37:25;;;;;;;6.55;2.47;;;;;;;13.27;100.00;102164.91;10448941;28;20056;-66
2022/07/15 05:42:25;;;;;;;5.70;1.45;;;;;;;13.45;100.00;102173.09;10445811;28;20091;-66
2022/07/15 05:47:26;;;;;;;5.22;1.60;;;;;;;13.55;100.00;102177.22;10429306;28;20040;-67
2022/07/15 05:52:26;;;;;;;4.97;1.40;;;;;;;13.73;100.00;102185.38;10445246;28;20067;-66
2022/07/15 05:57:27;;;;;;;5.60;0.90;;;;;;;13.88;100.00;102177.38;10445728;28;20535;-66
2022/07/15 06:02:28;;;;;;;9.82;1.35;;;;;;;13.95;100.00;102177.22;10448092;28;20469;-66
2022/07/15 06:07:29;;;;;;;8.73;2.15;;;;;;;14.12;100.00;102188.41;10449102;28;20043;-66
2022/07/15 06:12:29;;;;;;;5.88;1.10;;;;;;;14.31;100.00;102178.78;10448284;28;20055;-66
2022/07/15 06:17:30;;;;;;;4.25;0.90;;;;;;;14.75;100.00;102181.00;10447412;28;20041;-66
2022/07/15 06:22:30;;;;;;;10.52;1.48;;;;;;;15.13;100.00;102177.50;10445260;28;20044;-65
2022/07/15 06:27:31;;;;;;;3.67;0.70;;;;;;;15.76;100.00;102168.97;10447255;28;20044;-65
2022/07/15 06:32:31;;;;;;;2.72;0.68;;;;;;;16.39;100.00;102168.59;10486594;28;20044;-66
2022/07/15 06:37:32;;;;;;;4.60;0.80;;;;;;;16.46;100.00;102172.00;10489971;28;20098;-66
2022/07/15 06:42:32;;;;;;;4.45;0.50;;;;;;;16.21;100.00;102126.19;10486301;28;20037;-66
2022/07/15 06:47:33;;;;;;;3.42;0.50;;;;;;;16.43;100.00;102176.13;10494095;28;20032;-66
2022/07/15 06:52:33;;;;;;;6.25;0.75;;;;;;;16.50;100.00;102174.00;10496864;28;20102;-65
2022/07/15 06:57:34;;;;;;;2.85;0.60;;;;;;;16.64;100.00;102185.53;10488087;28;20044;-65
2022/07/15 07:02:34;;;;;;;6.13;0.75;;;;;;;16.81;100.00;102190.19;10461441;28;20082;-65
2022/07/15 07:07:35;;;;;;;2.92;0.50;;;;;;;16.73;100.00;102178.38;10475911;28;20398;-66
2022/07/15 07:12:36;;;;;;;3.65;0.50;;;;;;;16.49;100.00;102190.94;10470434;28;20056;-66
2022/07/15 07:17:37;;;;;;;3.10;0.57;;;;;;;15.88;100.00;102205.78;10473950;28;20048;-67
2022/07/15 07:22:37;;;;;;;2.70;0.40;;;;;;;15.94;100.00;102199.19;10472741;28;20040;-66
2022/07/15 07:27:38;;;;;;;1.98;0.40;;;;;;;15.81;100.00;102204.28;10472779;28;20036;-65
2022/07/15 07:32:38;;;;;;;3.88;0.65;;;;;;;16.16;100.00;102194.72;10496153;28;20051;-66
2022/07/15 07:37:40;;;;;;;2.92;0.68;;;;;;;17.01;100.00;102184.78;10495900;28;20036;-66
2022/07/15 07:42:40;;;;;;;2.63;0.90;;;;;;;17.93;100.00;102185.34;10494523;28;20047;-65
2022/07/15 07:47:43;;;;;;;3.17;0.30;;;;;;;18.02;100.00;102170.91;10493215;28;20035;-67
2022/07/15 07:52:43;;;;;;;4.90;0.52;;;;;;;17.47;100.00;102182.31;10474038;28;20096;-66
2022/07/15 07:57:48;;;;;;;1.30;0.40;;;;;;;16.72;100.00;102189.75;10493770;28;20056;-66
2022/07/15 08:02:48;;;;;;;4.05;0.50;;;;;;;16.45;100.00;102187.00;10470685;28;20096;-66
2022/07/15 08:07:48;;;;;;;3.85;0.40;;;;;;;16.37;100.00;102187.47;10452113;28;20053;-66
2022/07/15 08:12:49;;;;;;;10.35;2.05;;;;;;;16.72;100.00;102176.72;10451368;28;20059;-67
2022/07/15 08:17:49;;;;;;;3.17;0.40;;;;;;;17.14;100.00;102162.06;10451791;28;20120;-66
2022/07/15 08:22:58;;;;;;;3.95;0.55;;;;;;;17.49;100.00;102152.25;10442502;28;20056;-66
2022/07/15 08:27:58;;;;;;;7.30;1.20;;;;;;;17.90;100.00;102162.78;10484664;28;20043;-65
2022/07/15 08:32:59;;;;;;;3.45;0.38;;;;;;;18.39;100.00;102153.16;10474999;28;20044;-66
2022/07/15 08:38:05;;;;;;;2.35;0.60;;;;;;;18.75;100.00;102152.09;10467458;28;20120;-67
2022/07/15 08:43:07;;;;;;;4.15;0.60;;;;;;;18.40;100.00;102168.78;10470242;28;20029;-67
2022/07/15 08:48:08;;;;;;;2.55;0.30;;;;;;;17.62;100.00;102167.63;10467818;28;20115;-66
2022/07/15 08:53:08;;;;;;;3.28;0.70;;;;;;;17.58;100.00;102172.06;10486281;28;20104;-67
2022/07/15 08:58:09;;;;;;;1.33;0.40;;;;;;;17.79;100.00;102178.56;10457655;28;20056;-66
2022/07/15 09:03:09;;;;;;;2.40;0.40;;;;;;;18.33;100.00;102169.03;10451036;28;20037;-67
2022/07/15 09:08:15;;;;;;;3.85;0.45;;;;;;;18.98;100.00;102154.66;10446931;28;20033;-67
2022/07/15 09:13:30;;;;;;;4.53;0.40;;;;;;;18.89;100.00;102159.94;10448985;28;20045;-67
2022/07/15 09:18:33;;;;;;;4.72;0.50;;;;;;;18.76;100.00;102144.56;10453479;28;20040;-65
2022/07/15 09:23:34;;;;;;;1.15;0.38;;;;;;;18.71;100.00;102156.56;10490225;28;20131;-65
2022/07/15 09:28:39;;;;;;;1.20;0.30;;;;;;;18.93;100.00;102158.25;10491225;28;20033;-65
2022/07/15 09:33:43;;;;;;;1.42;0.20;;;;;;;18.86;95.13;102140.97;10490288;28;20064;-65
2022/07/15 09:38:55;;;;;;;1.55;0.38;;;;;;;18.93;94.10;102135.94;10487982;28;20029;-65
2022/07/15 09:44:01;;;;;;;3.20;0.20;;;;;;;19.15;93.47;102139.25;10488836;28;20575;-65
2022/07/15 09:49:01;;;;;;;1.13;0.30;;;;;;;19.63;91.60;102132.44;10486203;28;20057;-66
2022/07/15 09:54:02;;;;;;;1.58;0.30;;;;;;;19.91;86.03;102117.81;10488537;28;20032;-65
2022/07/15 09:59:02;;;;;;;2.20;0.28;;;;;;;20.03;89.58;102137.03;10487347;28;20077;-65
2022/07/15 10:04:04;;;;;;;0.45;0.30;;;;;;;19.61;86.40;102120.69;10488016;28;20044;-65
2022/07/15 10:09:05;;;;;;;0.95;0.30;;;;;;;19.92;85.95;102118.63;10467172;28;20098;-64
2022/07/15 10:14:30;;;;;;;3.38;0.35;;;;;;;20.70;85.35;102112.25;10485313;28;20063;-66
2022/07/15 10:19:53;;;;;;;2.88;0.30;;;;;;;20.08;82.16;102106.25;10473738;28;20105;-63
2022/07/15 10:24:56;;;;;;;5.15;1.17;;;;;;;18.95;85.94;102139.28;10442944;28;20037;-64
2022/07/15 10:29:57;;;;;;;0.45;0.30;;;;;;;18.53;89.44;102140.38;10460024;28;20045;-65
2022/07/15 10:34:57;;;;;;;4.18;0.40;;;;;;;18.40;90.11;102143.69;10455424;28;20028;-65
2022/07/15 10:40:06;;;;;;;3.50;0.30;;;;;;;18.66;89.53;102141.75;10456222;28;20048;-65
2022/07/15 10:45:07;;;;;;;3.10;0.45;;;;;;;19.01;88.95;102126.16;10460976;28;20037;-64
2022/07/15 10:50:36;;;;;;;1.92;0.30;;;;;;;19.36;85.33;102111.28;10442582;28;20079;-65
2022/07/15 10:55:37;;;;;;;1.17;0.30;;;;;;;20.03;84.80;102108.22;10459906;28;20045;-66
2022/07/15 11:00:37;;;;;;;1.48;0.70;;;;;;;20.05;84.13;102111.56;10441295;28;20076;-65
2022/07/15 11:05:45;;;;;;;2.65;0.30;;;;;;;20.29;84.03;102112.53;10458172;28;20044;-64
2022/07/15 11:10:45;;;;;;;1.98;0.38;;;;;;;20.61;84.09;102091.66;10483849;28;20100;-65
2022/07/15 11:15:51;;;;;;;3.58;0.30;;;;;;;21.19;82.57;102089.94;10503329;28;20049;-64
2022/07/15 11:20:51;;;;;;;3.47;0.30;;;;;;;21.15;79.98;102079.34;10484590;28;20063;-64
2022/07/15 11:25:52;;;;;;;1.42;0.40;;;;;;;21.16;79.39;102097.81;10463662;28;20041;-64
2022/07/15 11:30:55;;;;;;;2.20;0.25;;;;;;;20.76;79.33;102091.50;10456033;28;20069;-65
2022/07/15 11:35:57;;;;;;;1.90;0.40;;;;;;;20.26;80.02;102101.13;10435649;28;20033;-64
2022/07/15 11:46:19;;;;;;;1.27;0.30;;;;;;;18.84;85.26;102068.69;10453532;28;20024;-64
2022/07/15 11:51:29;;;;;;;2.08;0.55;;;;;;;18.72;91.10;102141.47;10450692;28;20087;-64
2022/07/15 11:56:30;;;;;;;1.75;0.28;;;;;;;18.34;92.63;102121.38;10452718;28;20037;-64
2022/07/15 12:01:30;;;;;;;3.00;0.30;;;;;;;17.94;93.45;102113.75;10450757;28;20041;-65
2022/07/15 12:06:32;;;;;;;2.17;0.38;;;;;;;17.91;94.44;102115.16;10452771;28;20037;-64
2022/07/15 12:11:34;;;;;;;2.90;0.40;;;;;;;17.94;95.14;102119.31;10452336;28;20066;-64
2022/07/15 12:16:36;;;;;;;1.02;0.30;;;;;;;18.18;95.77;102124.41;10451996;28;20041;-64
2022/07/15 12:21:36;;;;;;;2.20;1.02;;;;;;;18.53;94.49;102099.38;10449684;28;20060;-64
2022/07/15 12:26:39;;;;;;;1.42;0.30;;;;;;;19.20;92.17;102107.69;10416524;28;20505;-64
2022/07/15 12:31:40;;;;;;;0.50;0.30;;;;;;;19.86;91.95;102087.06;10450355;28;20033;-64
2022/07/15 12:36:40;;;;;;;3.42;0.82;;;;;;;20.65;83.97;102087.13;10458068;28;20050;-65
2022/07/15 12:41:42;;;;;;;3.08;0.40;;;;;;;20.46;82.88;102100.13;10491869;28;20124;-64
2022/07/15 12:46:51;;;;;;;1.52;0.50;;;;;;;19.47;88.45;102117.66;10489142;28;20032;-65
2022/07/15 12:51:52;;;;;;;1.52;0.50;;;;;;;18.85;92.96;102128.97;10490900;28;20511;-64
2022/07/15 12:56:53;;;;;;;2.45;0.60;;;;;;;18.54;98.67;102136.44;10491611;28;20028;-64
2022/07/15 13:02:03;;;;;;;6.38;0.82;;;;;;;18.32;99.39;102131.97;10491253;28;20028;-64
2022/07/15 13:07:03;;;;;;;3.70;0.55;;;;;;;17.98;100.00;102144.69;10493516;28;20036;-65
2022/07/15 13:12:04;;;;;;;2.17;0.45;;;;;;;17.75;100.00;102144.03;10455112;28;20106;-64
2022/07/15 13:17:05;;;;;;;2.05;1.40;;;;;;;17.44;100.00;102135.50;10446677;28;20102;-65
2022/07/15 13:22:05;;;;;;;4.57;0.63;;;;;;;17.05;100.00;102109.94;10446939;28;20043;-65
2022/07/15 13:27:06;;;;;;;1.85;1.10;;;;;;;17.27;100.00;102141.25;10447965;28;20060;-65
2022/07/15 13:32:06;;;;;;;3.05;0.60;;;;;;;17.38;100.00;102132.97;10474444;28;20551;-64
2022/07/15 13:37:07;;;;;;;2.42;0.90;;;;;;;17.83;100.00;102140.75;10489091;28;20432;-64
2022/07/15 13:42:08;;;;;;;2.55;1.13;;;;;;;18.23;100.00;102121.63;10476629;28;20033;-64
2022/07/15 13:47:08;;;;;;;6.07;1.00;;;;;;;18.66;100.00;102128.66;10452464;28;20029;-63
2022/07/15 13:52:09;;;;;;;4.30;0.70;;;;;;;18.88;100.00;102122.00;10447816;28;20029;-63
2022/07/15 13:57:09;;;;;;;2.63;0.68;;;;;;;18.97;100.00;102109.13;10448126;28;20040;-63
2022/07/15 14:02:10;;;;;;;1.85;0.50;;;;;;;18.93;100.00;102113.59;10449058;28;20115;-63
2022/07/15 14:07:10;;;;;;;3.67;0.70;;;;;;;18.67;100.00;102115.56;10448993;28;20045;-63
2022/07/15 14:12:11;;;;;;;2.10;0.70;;;;;;;18.91;100.00;102115.84;10429250;28;20087;-65
2022/07/15 14:17:11;;;;;;;3.47;0.60;;;;;;;19.55;100.00;102114.28;10447791;28;20111;-65
2022/07/15 14:22:12;;;;;;;3.95;0.70;;;;;;;20.43;97.43;102101.53;10447704;28;20036;-65
2022/07/15 14:27:12;;;;;;;3.25;0.90;;;;;;;20.69;92.52;102085.41;10445301;28;20032;-65
2022/07/15 14:32:12;;;;;;;1.50;0.52;;;;;;;21.86;89.23;102070.38;10448514;28;20037;-65
2022/07/15 14:37:13;;;;;;;3.70;0.70;;;;;;;22.15;86.54;102067.41;10478372;28;20047;-65
2022/07/15 14:42:14;;;;;;;2.80;1.08;;;;;;;22.04;82.85;102072.34;10457717;28;20040;-65
2022/07/15 14:47:14;;;;;;;2.05;0.55;;;;;;;21.62;82.85;102060.06;10447250;28;20067;-63
2022/07/15 14:52:14;;;;;;;3.10;0.50;;;;;;;21.10;82.89;102056.16;10447627;28;20390;-65
2022/07/15 14:57:16;;;;;;;2.15;0.52;;;;;;;21.24;83.20;102050.69;10461020;28;20032;-65
2022/07/15 15:02:17;;;;;;;4.78;0.85;;;;;;;21.49;82.69;102056.00;10466497;28;20036;-64
2022/07/15 15:07:17;;;;;;;1.05;0.70;;;;;;;21.46;81.00;102053.81;10481109;28;20059;-65
2022/07/15 15:12:18;;;;;;;1.98;0.70;;;;;;;20.75;83.50;102059.06;10481043;28;20056;-65
2022/07/15 15:17:18;;;;;;;4.05;1.50;;;;;;;20.30;86.60;102058.28;10446031;28;20056;-65
2022/07/15 15:22:18;;;;;;;2.33;0.93;;;;;;;20.05;89.11;102066.84;10479728;28;20074;-65
2022/07/15 15:27:19;;;;;;;4.03;1.23;;;;;;;19.64;90.83;102072.66;10482930;28;20044;-65
2022/07/15 15:32:19;;;;;;;4.30;0.55;;;;;;;19.69;91.84;102058.66;10484879;28;20145;-65
2022/07/15 15:37:20;;;;;;;3.35;1.00;;;;;;;20.02;91.87;102056.25;10483321;28;20075;-66
2022/07/15 15:42:20;;;;;;;3.22;0.82;;;;;;;20.35;89.98;102049.03;10482365;28;20049;-65
2022/07/15 15:47:21;;;;;;;1.65;0.80;;;;;;;20.52;89.43;102043.00;10479159;28;20228;-66
2022/07/15 15:52:21;;;;;;;2.17;1.00;;;;;;;20.99;89.39;102033.06;10471663;28;20089;-65
2022/07/15 15:57:22;;;;;;;4.70;0.90;;;;;;;21.36;86.17;102028.69;10475916;28;20126;-65
2022/07/15 16:02:22;;;;;;;3.95;0.90;;;;;;;21.10;84.97;102025.38;10481220;28;20491;-65
2022/07/15 16:07:23;;;;;;;2.97;1.05;;;;;;;20.62;87.27;102031.75;10483184;28;20044;-65
2022/07/15 16:12:23;;;;;;;2.63;0.90;;;;;;;21.08;89.99;102024.81;10480789;28;20037;-65
2022/07/15 16:17:24;;;;;;;4.10;1.45;;;;;;;21.62;85.34;102008.75;10480215;28;20067;-64
2022/07/15 16:27:43;;;;;;;4.47;0.75;;;;;;;21.02;85.40;102006.41;10479383;28;20052;-66
2022/07/15 16:32:43;;;;;;;3.60;1.73;;;;;;;21.30;86.32;102004.69;10466172;28;20049;-65
2022/07/15 16:37:44;;;;;;;2.55;1.23;;;;;;;21.31;83.21;101997.94;10450026;28;20033;-65
2022/07/15 16:42:45;;;;;;;2.90;1.17;;;;;;;21.08;84.47;101989.25;10449122;28;20037;-65
2022/07/15 16:47:46;;;;;;;2.25;0.60;;;;;;;20.63;84.88;101994.25;10450166;28;20040;-65
2022/07/15 16:52:46;;;;;;;4.68;0.80;;;;;;;20.24;86.91;101963.56;10447155;28;20045;-65
2022/07/15 16:57:47;;;;;;;11.65;3.95;;;;;;;20.40;88.06;101992.19;10470400;28;20041;-64
2022/07/15 17:02:47;;;;;;;3.38;1.23;;;;;;;19.88;86.82;101992.59;10460518;28;20041;-65
2022/07/15 17:07:47;;;;;;;1.33;0.70;;;;;;;19.58;89.92;101996.41;10448142;28;20029;-65
2022/07/15 17:12:48;;;;;;;3.53;1.10;;;;;;;19.44;89.15;101987.81;10458542;28;20064;-62
2022/07/15 17:17:48;;;;;;;6.20;1.50;;;;;;;19.62;92.99;101996.69;10450398;28;20044;-65
2022/07/15 17:22:49;;;;;;;6.95;1.65;;;;;;;19.52;90.96;101986.41;10478343;28;20079;-65
2022/07/15 17:27:49;;;;;;;4.18;1.40;;;;;;;19.43;92.07;101994.56;10446365;28;20041;-64
2022/07/15 17:32:50;;;;;;;5.05;1.45;;;;;;;19.29;91.64;101993.50;10463102;28;20037;-65
2022/07/15 17:37:51;;;;;;;6.28;2.20;;;;;;;19.24;93.24;102004.66;10441968;28;20041;-65
2022/07/15 17:42:51;;;;;;;7.75;1.20;;;;;;;19.19;92.82;101999.13;10462250;28;20032;-65
2022/07/15 17:47:51;;;;;;;3.30;0.95;;;;;;;19.01;94.07;101993.03;10448288;28;20045;-65
2022/07/15 17:52:52;;;;;;;8.05;2.85;;;;;;;18.91;95.11;101976.31;10453394;28;20033;-64
2022/07/15 17:57:52;;;;;;;3.42;1.30;;;;;;;18.82;97.89;101991.97;10462804;28;20408;-64
2022/07/15 18:02:53;;;;;;;4.35;1.90;;;;;;;18.78;98.55;101976.91;10464808;28;20040;-64
2022/07/15 18:07:55;;;;;;;3.40;1.15;;;;;;;18.70;99.99;101987.50;10462988;28;20180;-65
2022/07/15 18:12:55;;;;;;;4.45;1.73;;;;;;;18.53;100.00;101981.41;10470340;28;20045;-65
2022/07/15 18:17:56;;;;;;;4.05;1.00;;;;;;;18.49;100.00;101985.88;10449807;28;20033;-65
2022/07/15 18:22:56;;;;;;;4.32;1.40;;;;;;;18.46;100.00;101984.50;10446136;28;20037;-65
2022/07/15 18:27:56;;;;;;;3.30;1.58;;;;;;;18.51;100.00;101975.28;10458409;28;20043;-65
2022/07/15 18:32:57;;;;;;;3.00;1.13;;;;;;;18.60;100.00;101973.56;10467056;28;20097;-65
2022/07/15 18:37:57;;;;;;;4.82;1.77;;;;;;;18.72;100.00;101971.31;10478643;28;20052;-65
2022/07/15 18:42:58;;;;;;;5.95;2.40;;;;;;;18.67;100.00;101971.34;10434304;28;20033;-65
2022/07/15 18:47:58;;;;;;;4.00;1.30;;;;;;;18.48;100.00;101968.31;10460060;28;20029;-65
2022/07/15 18:52:59;;;;;;;4.45;1.25;;;;;;;18.25;100.00;101964.16;10460259;28;20503;-65
2022/07/15 18:57:59;;;;;;;3.70;1.60;;;;;;;17.80;100.00;101923.16;10454557;28;20045;-65
2022/07/15 19:03:00;;;;;;;7.38;1.60;;;;;;;17.90;100.00;101959.41;10452920;28;20452;-65
2022/07/15 19:08:00;;;;;;;5.53;1.80;;;;;;;17.83;100.00;101958.84;10462389;28;20428;-64
2022/07/15 19:13:01;;;;;;;3.47;1.85;;;;;;;17.74;100.00;101964.94;10433212;28;20069;-64
2022/07/15 19:18:02;;;;;;;4.43;2.00;;;;;;;17.65;100.00;101949.03;10464291;28;20041;-64
2022/07/15 19:23:02;;;;;;;5.32;1.88;;;;;;;17.59;100.00;101947.34;10446895;28;20484;-64
2022/07/15 19:28:04;;;;;;;3.92;1.85;;;;;;;17.50;100.00;101942.31;10466994;28;20041;-65
2022/07/15 19:33:05;;;;;;;3.63;1.55;;;;;;;17.42;100.00;101947.59;10448362;28;20036;-64
2022/07/15 19:38:05;;;;;;;6.53;3.85;;;;;;;17.35;100.00;101942.28;10449363;28;20508;-65
2022/07/15 19:43:06;;;;;;;5.95;2.25;;;;;;;17.27;100.00;101956.75;10450178;28;20041;-64
2022/07/15 19:48:06;;;;;;;4.18;1.77;;;;;;;17.08;100.00;101946.09;10471845;28;20041;-65
2022/07/15 19:53:07;;;;;;;4.25;1.80;;;;;;;16.95;100.00;101943.84;10478379;28;20048;-65
2022/07/15 19:58:07;;;;;;;5.40;2.10;;;;;;;16.92;100.00;101941.56;10482989;28;20059;-63
2022/07/15 20:03:08;;;;;;;4.25;1.80;;;;;;;16.86;100.00;101945.44;10449956;28;20104;-65
2022/07/15 20:08:08;;;;;;;7.72;1.25;;;;;;;16.79;100.00;101936.50;10453197;28;20481;-65
2022/07/15 20:13:09;;;;;;;6.85;1.20;;;;;;;16.75;100.00;101942.56;10450014;28;20037;-64
2022/07/15 20:18:09;;;;;;;2.55;0.90;;;;;;;16.74;100.00;101940.06;10452402;28;20068;-65
2022/07/15 20:23:10;;;;;;;3.55;1.20;;;;;;;16.69;100.00;101940.88;10481403;28;20032;-66
2022/07/15 20:28:11;;;;;;;4.32;1.02;;;;;;;16.73;100.00;101953.13;10476873;28;20064;-64
2022/07/15 20:33:12;;;;;;;4.90;1.67;;;;;;;16.66;100.00;101955.34;10448573;28;20033;-64
2022/07/15 20:38:12;;;;;;;4.65;0.88;;;;;;;16.52;100.00;101948.56;10448054;28;20037;-64
2022/07/15 20:43:13;;;;;;;2.78;1.20;;;;;;;16.47;100.00;101934.63;10448400;28;20455;-65
2022/07/15 20:48:13;;;;;;;3.50;0.98;;;;;;;16.45;100.00;101932.09;10458054;28;20037;-64
2022/07/15 20:53:14;;;;;;;7.18;1.60;;;;;;;16.41;100.00;101930.13;10445375;28;20045;-64
2022/07/15 20:58:14;;;;;;;2.17;1.60;;;;;;;16.35;100.00;101926.50;10450117;28;20049;-62
2022/07/15 21:03:15;;;;;;;1.58;0.70;;;;;;;16.26;100.00;101928.09;10448461;28;22155;-66
2022/07/15 21:08:15;;;;;;;1.60;0.57;;;;;;;16.23;100.00;101923.09;10448821;28;20044;-66
2022/07/15 21:13:16;;;;;;;2.60;1.00;;;;;;;16.20;100.00;101924.44;10447293;28;20037;-65
2022/07/15 21:18:16;;;;;;;1.55;0.73;;;;;;;16.17;100.00;101930.53;10447160;28;20102;-65
2022/07/15 21:23:17;;;;;;;5.57;1.33;;;;;;;16.12;100.00;101925.78;10463842;28;20083;-65
2022/07/15 21:28:17;;;;;;;4.32;1.00;;;;;;;16.10;100.00;101935.47;10490091;28;20132;-64
2022/07/15 21:33:18;;;;;;;5.13;1.35;;;;;;;15.77;100.00;101942.13;10487417;28;20085;-64
2022/07/15 21:38:18;;;;;;;4.28;1.40;;;;;;;15.52;100.00;101930.50;10487774;28;20032;-65
2022/07/15 21:43:19;;;;;;;2.25;1.67;;;;;;;15.41;100.00;101930.66;10488086;28;20040;-64
2022/07/15 21:48:19;;;;;;;7.40;1.60;;;;;;;15.38;100.00;101929.22;10486686;28;20028;-63
2022/07/15 21:53:20;;;;;;;2.63;1.35;;;;;;;15.38;100.00;101917.28;10485709;28;20049;-64
2022/07/15 21:58:20;;;;;;;3.05;1.77;;;;;;;15.41;100.00;101916.78;10488333;28;20037;-64
2022/07/15 22:03:21;;;;;;;1.55;1.05;;;;;;;15.40;100.00;101915.94;10487641;28;20420;-65
2022/07/15 22:08:21;;;;;;;3.03;1.25;;;;;;;15.42;100.00;101913.75;10473375;28;20044;-65
2022/07/15 22:13:21;;;;;;;3.85;1.92;;;;;;;15.42;100.00;101902.63;10446049;28;20044;-65
2022/07/15 22:18:22;;;;;;;3.75;1.38;;;;;;;15.40;100.00;101904.84;10455030;28;20045;-64
2022/07/15 22:23:22;;;;;;;4.05;1.30;;;;;;;15.37;100.00;101899.78;10466134;28;20047;-64
2022/07/15 22:28:23;;;;;;;2.03;1.35;;;;;;;15.33;100.00;101899.47;10460534;28;20048;-65
2022/07/15 22:33:23;;;;;;;3.78;1.05;;;;;;;15.25;100.00;101897.16;10464454;28;20041;-65
2022/07/15 22:38:24;;;;;;;3.25;1.05;;;;;;;15.28;100.00;101909.69;10465500;28;20044;-64
2022/07/15 22:43:24;;;;;;;4.53;1.00;;;;;;;15.20;100.00;101896.28;10443912;28;20049;-63
2022/07/15 22:48:25;;;;;;;4.13;1.23;;;;;;;15.10;100.00;101905.34;10446619;28;20062;-65
2022/07/15 22:53:25;;;;;;;1.77;0.95;;;;;;;14.99;100.00;101896.06;10446474;28;20041;-65
2022/07/15 22:58:26;;;;;;;1.65;1.10;;;;;;;14.96;100.00;101898.50;10446277;28;20052;-65
2022/07/15 23:03:27;;;;;;;2.67;1.02;;;;;;;14.94;100.00;101890.44;10443214;28;20029;-65